Time;durP1;ratioP1;P1;durP2;ratioP2;P2;SDS_P1;SDS_P2;PMS_P1;PMS_P2;Temp;Humidity;BMP_temperature;BMP_pressure;BME280_temperature;BME280_humidity;BME280_pressure;Samples;Min_cycle;Max_cycle;Signal;HPM_P1;HPM_P2
2022/11/03 00:02:12;;;;;;;1.00;0.95;;;;;;;1.01;74.85;99532.66;5072824;28;20206;-64
2022/11/03 00:04:38;;;;;;;2.15;0.90;;;;;;;1.05;74.88;99524.22;5064657;28;20033;-64
2022/11/03 00:07:04;;;;;;;0.75;0.75;;;;;;;1.13;74.29;99526.91;5064638;28;20063;-64
2022/11/03 00:09:30;;;;;;;0.73;0.70;;;;;;;1.12;74.56;99533.66;5072454;28;20099;-64
2022/11/03 00:11:55;;;;;;;0.77;0.77;;;;;;;1.17;74.34;99534.59;5067861;28;20033;-65
2022/11/03 00:14:21;;;;;;;0.80;0.80;;;;;;;1.19;74.04;99540.56;5064516;28;20097;-64
2022/11/03 00:16:47;;;;;;;2.50;1.15;;;;;;;0.96;74.80;99542.78;5071221;28;20028;-65
2022/11/03 00:19:15;;;;;;;0.80;0.80;;;;;;;1.09;74.81;99542.97;5082226;28;20025;-65
2022/11/03 00:21:40;;;;;;;1.88;1.00;;;;;;;0.99;75.07;99534.34;5079492;28;20209;-65
2022/11/03 00:24:06;;;;;;;1.58;0.90;;;;;;;0.89;75.33;99542.69;5079926;28;20028;-64
2022/11/03 00:26:34;;;;;;;1.08;1.00;;;;;;;0.95;75.07;99537.66;5071111;28;20028;-65
2022/11/03 00:29:05;;;;;;;1.17;0.90;;;;;;;0.68;75.26;99518.56;5072903;28;20066;-65
2022/11/03 00:31:33;;;;;;;0.90;0.90;;;;;;;0.40;76.44;99518.13;5084145;28;20073;-63
2022/11/03 00:34:00;;;;;;;0.80;0.80;;;;;;;0.75;75.61;99545.00;5083704;28;20212;-64
2022/11/03 00:36:28;;;;;;;0.90;0.90;;;;;;;0.71;75.62;99533.91;5064205;28;20021;-64
2022/11/03 00:38:54;;;;;;;1.02;0.98;;;;;;;0.70;76.10;99547.50;5080021;28;20055;-64
2022/11/03 00:41:21;;;;;;;1.10;1.08;;;;;;;0.55;76.34;99547.25;5072488;28;20037;-64
2022/11/03 00:43:47;;;;;;;0.80;0.80;;;;;;;0.57;76.36;99548.09;5070627;28;20028;-64
2022/11/03 00:46:13;;;;;;;0.90;0.90;;;;;;;0.42;76.67;99554.66;5081640;28;20021;-64
2022/11/03 00:48:39;;;;;;;1.00;0.95;;;;;;;0.41;77.23;99558.03;5067137;28;20047;-63
2022/11/03 00:51:08;;;;;;;0.93;0.90;;;;;;;0.27;77.83;99556.94;5083500;28;20028;-64
2022/11/03 00:53:37;;;;;;;0.85;0.85;;;;;;;0.34;77.21;99559.63;5083720;28;20040;-63
2022/11/03 00:56:03;;;;;;;1.17;0.82;;;;;;;0.22;77.71;99553.47;5083408;28;20028;-63
2022/11/03 00:58:29;;;;;;;0.77;0.77;;;;;;;0.22;77.59;99561.09;5083676;28;20086;-64
2022/11/03 01:00:59;;;;;;;0.80;0.80;;;;;;;-0.03;77.67;99541.13;5070214;28;20313;-63
2022/11/03 01:03:25;;;;;;;0.95;0.90;;;;;;;0.26;77.50;99560.34;5063810;28;20075;-63
2022/11/03 01:08:35;;;;;;;1.00;1.00;;;;;;;0.13;78.10;99569.44;5083503;28;20028;-63
2022/11/03 01:13:50;;;;;;;0.90;0.90;;;;;;;0.12;78.16;99567.72;5070535;28;20028;-63
2022/11/03 01:16:15;;;;;;;1.00;1.00;;;;;;;0.31;78.27;99571.44;5081195;28;20028;-63
2022/11/03 01:18:41;;;;;;;1.25;1.15;;;;;;;0.30;77.07;99567.16;5063641;28;20131;-64
2022/11/03 01:21:07;;;;;;;0.82;0.82;;;;;;;0.31;76.88;99553.63;5080495;28;20025;-64
2022/11/03 01:23:34;;;;;;;0.93;0.93;;;;;;;0.49;76.64;99566.69;5082462;28;20021;-64
2022/11/03 01:26:06;;;;;;;1.20;1.10;;;;;;;0.49;76.18;99555.63;5074855;28;20092;-64
2022/11/03 01:28:40;;;;;;;1.50;1.40;;;;;;;0.26;76.60;99551.00;5067560;28;20055;-64
2022/11/03 01:31:13;;;;;;;2.40;1.63;;;;;;;0.15;77.47;99566.06;5083174;28;20077;-64
2022/11/03 01:33:40;;;;;;;1.80;1.70;;;;;;;0.29;77.51;99570.56;5083587;28;20024;-64
2022/11/03 01:36:06;;;;;;;1.98;1.80;;;;;;;0.32;77.37;99562.97;5065610;28;20035;-64
2022/11/03 01:38:33;;;;;;;2.38;2.17;;;;;;;0.13;78.11;99569.44;5075781;28;20040;-64
2022/11/03 01:40:59;;;;;;;3.25;2.70;;;;;;;0.17;77.37;99554.25;5074995;28;20037;-64
2022/11/03 01:43:27;;;;;;;2.70;2.50;;;;;;;0.17;77.23;99563.53;5062162;28;20024;-63
2022/11/03 01:46:16;;;;;;;2.90;2.70;;;;;;;0.13;76.80;99562.66;5074312;28;20028;-63
2022/11/03 01:48:48;;;;;;;2.95;2.65;;;;;;;0.03;76.47;99558.22;5063206;28;20032;-64
2022/11/03 01:51:18;;;;;;;3.30;3.00;;;;;;;0.01;77.42;99542.03;5081188;28;20283;-64
2022/11/03 01:53:46;;;;;;;3.38;3.10;;;;;;;0.22;76.90;99561.94;5083352;28;20025;-64
2022/11/03 01:56:12;;;;;;;3.47;3.17;;;;;;;0.26;76.97;99560.34;5073487;28;20060;-64
2022/11/03 01:58:43;;;;;;;2.55;2.35;;;;;;;0.23;77.18;99545.84;5082812;28;20056;-64
2022/11/03 02:01:11;;;;;;;3.45;3.15;;;;;;;0.44;76.97;99559.78;5068683;28;20318;-64
2022/11/03 02:03:41;;;;;;;3.13;2.92;;;;;;;0.40;76.57;99541.06;5083190;28;20092;-64
2022/11/03 02:06:08;;;;;;;3.40;3.10;;;;;;;0.45;77.08;99556.41;5065597;28;20303;-63
2022/11/03 02:08:39;;;;;;;3.00;2.80;;;;;;;0.51;75.91;99562.47;5075588;28;20024;-63
2022/11/03 02:12:05;;;;;;;2.55;2.10;;;;;;;0.53;75.76;99565.06;5074432;28;20051;-64
2022/11/03 02:13:50;;;;;;;2.08;1.98;;;;;;;0.65;75.83;99569.50;5068975;28;20032;-63
2022/11/03 02:16:18;;;;;;;4.22;1.63;;;;;;;0.70;75.94;99572.97;5081211;28;20039;-64
2022/11/03 02:18:44;;;;;;;2.38;1.52;;;;;;;0.63;76.30;99569.47;5070971;28;20056;-64
2022/11/03 02:21:25;;;;;;;1.77;1.67;;;;;;;0.56;76.05;99571.91;5082251;28;20028;-64
2022/11/03 02:24:17;;;;;;;1.90;1.80;;;;;;;0.35;76.09;99565.56;5067165;28;20316;-63
2022/11/03 02:26:47;;;;;;;2.03;1.27;;;;;;;0.45;75.92;99549.63;5062671;28;20390;-63
2022/11/03 02:29:13;;;;;;;1.50;1.40;;;;;;;0.64;75.86;99570.31;5062640;28;20056;-63
2022/11/03 02:31:48;;;;;;;1.48;1.38;;;;;;;0.59;76.27;99564.31;5074890;28;20343;-64
2022/11/03 02:34:29;;;;;;;1.95;1.50;;;;;;;0.63;76.53;99574.56;5081563;28;20097;-63
2022/11/03 02:37:01;;;;;;;1.90;1.73;;;;;;;0.68;75.08;99566.97;5062443;28;20308;-63
2022/11/03 02:39:33;;;;;;;1.70;1.60;;;;;;;0.67;75.99;99558.50;5082113;28;20044;-63
2022/11/03 02:42:01;;;;;;;2.25;1.50;;;;;;;0.64;75.70;99560.13;5076823;28;20103;-65
2022/11/03 02:44:27;;;;;;;1.83;1.30;;;;;;;0.70;75.21;99560.25;5071325;28;20029;-65
2022/11/03 02:47:07;;;;;;;1.13;1.13;;;;;;;0.61;75.62;99542.22;5068697;28;20066;-65
2022/11/03 02:49:55;;;;;;;2.00;1.50;;;;;;;0.73;75.11;99547.53;5082304;28;20056;-64
2022/11/03 02:52:38;;;;;;;1.10;1.10;;;;;;;0.85;75.47;99554.50;5068010;28;20104;-64
2022/11/03 02:55:07;;;;;;;1.30;1.20;;;;;;;0.85;74.77;99555.38;5086021;28;20331;-63
2022/11/03 02:57:38;;;;;;;2.35;1.10;;;;;;;0.83;74.75;99548.56;5066113;28;20029;-64
2022/11/03 03:00:08;;;;;;;1.20;1.10;;;;;;;0.82;74.63;99554.47;5076122;28;20024;-64
2022/11/03 03:03:00;;;;;;;2.45;1.35;;;;;;;0.72;75.13;99558.56;5077783;28;20028;-63
2022/11/03 03:05:30;;;;;;;1.35;1.15;;;;;;;0.47;75.81;99547.97;5064878;28;20326;-63
2022/11/03 03:08:01;;;;;;;1.15;1.15;;;;;;;0.55;75.90;99540.44;5065775;28;20310;-63
2022/11/03 03:10:35;;;;;;;1.52;1.42;;;;;;;0.66;75.59;99550.81;5068467;28;20029;-64
2022/11/03 03:13:02;;;;;;;1.30;1.20;;;;;;;0.69;75.74;99564.47;5085590;28;20092;-63
2022/11/03 03:15:51;;;;;;;1.20;1.10;;;;;;;0.77;76.01;99558.63;5066448;28;20063;-64
2022/11/03 03:18:27;;;;;;;1.13;1.05;;;;;;;0.77;75.31;99558.63;5060199;28;20075;-64
2022/11/03 03:21:05;;;;;;;1.85;1.45;;;;;;;0.64;75.73;99543.16;5079626;28;20091;-63
2022/11/03 03:23:35;;;;;;;3.72;1.20;;;;;;;0.76;75.29;99554.38;5074061;28;20049;-64
2022/11/03 03:26:09;;;;;;;1.55;1.45;;;;;;;0.67;75.09;99555.06;5072543;28;20036;-64
2022/11/03 03:28:38;;;;;;;0.80;0.80;;;;;;;0.81;75.45;99576.56;5081995;28;20272;-65
2022/11/03 03:31:09;;;;;;;1.10;1.00;;;;;;;0.66;74.84;99554.22;5072467;28;20024;-64
2022/11/03 03:33:37;;;;;;;1.30;1.20;;;;;;;0.36;75.91;99576.63;5085279;28;20317;-64
2022/11/03 03:36:08;;;;;;;2.47;1.20;;;;;;;0.30;76.18;99547.69;5085165;28;20056;-63
2022/11/03 03:38:44;;;;;;;0.90;0.90;;;;;;;0.19;76.13;99554.25;5073128;28;20049;-63
2022/11/03 03:41:20;;;;;;;1.75;0.93;;;;;;;0.43;75.87;99560.59;5073182;28;20044;-64
2022/11/03 03:43:51;;;;;;;1.48;1.38;;;;;;;0.37;76.38;99563.94;5079807;28;20100;-65
2022/11/03 03:46:19;;;;;;;2.17;1.40;;;;;;;0.38;76.54;99570.72;5066147;28;20033;-64
2022/11/03 03:48:45;;;;;;;1.40;1.30;;;;;;;0.20;77.08;99571.25;5085209;28;20034;-66
2022/11/03 03:51:13;;;;;;;2.47;1.42;;;;;;;0.39;76.74;99569.91;5068185;28;20033;-64
2022/11/03 03:53:38;;;;;;;1.88;1.40;;;;;;;0.14;77.31;99576.22;5077124;28;20255;-64
2022/11/03 03:56:04;;;;;;;1.10;1.00;;;;;;;-0.11;77.63;99563.03;5077486;28;20017;-64
2022/11/03 03:58:30;;;;;;;1.73;1.08;;;;;;;0.10;77.28;99577.88;5073534;28;20040;-65
2022/11/03 04:00:56;;;;;;;1.00;1.00;;;;;;;-0.01;77.59;99579.34;5063375;28;20035;-63
2022/11/03 04:03:24;;;;;;;0.98;0.80;;;;;;;0.13;78.03;99570.28;5066728;28;20096;-62
2022/11/03 04:05:50;;;;;;;2.15;1.10;;;;;;;0.07;77.87;99569.31;5072977;28;20032;-63
2022/11/03 04:08:17;;;;;;;2.42;1.20;;;;;;;0.06;77.29;99558.28;5075744;28;20062;-63
2022/11/03 04:22:15;;;;;;;2.15;1.30;;;;;;;0.32;77.15;99568.06;5072245;28;20025;-63
2022/11/03 04:24:25;;;;;;;1.40;1.10;;;;;;;0.28;76.50;99569.69;5079870;28;20027;-66
2022/11/03 04:26:51;;;;;;;1.63;1.13;;;;;;;0.30;76.70;99582.44;5064172;28;20025;-64
2022/11/03 04:29:17;;;;;;;1.27;1.17;;;;;;;0.13;76.47;99594.91;5072918;28;20374;-63
2022/11/03 04:31:43;;;;;;;1.40;1.10;;;;;;;-0.07;76.87;99586.84;5083170;28;20027;-63
2022/11/03 04:34:12;;;;;;;0.95;0.90;;;;;;;0.13;77.78;99585.56;5082750;28;20037;-63
2022/11/03 04:36:38;;;;;;;2.80;1.15;;;;;;;0.28;77.05;99591.78;5064215;28;20163;-64
2022/11/03 04:39:17;;;;;;;1.15;1.00;;;;;;;0.25;76.89;99573.88;5065100;28;20047;-63
2022/11/03 04:41:43;;;;;;;2.88;1.20;;;;;;;0.40;76.69;99586.91;5064304;28;20089;-63
2022/11/03 04:44:15;;;;;;;1.48;1.17;;;;;;;0.42;76.40;99576.75;5066953;28;20313;-63
2022/11/03 04:46:42;;;;;;;1.30;1.20;;;;;;;0.17;76.74;99577.16;5067205;28;20056;-65
2022/11/03 04:49:15;;;;;;;6.45;1.20;;;;;;;0.31;75.90;99587.59;5083462;28;20020;-63
2022/11/03 04:51:41;;;;;;;1.25;1.10;;;;;;;0.19;75.92;99597.56;5062902;28;20036;-62
2022/11/03 04:54:18;;;;;;;1.40;1.30;;;;;;;0.21;77.32;99602.66;5074841;28;20040;-63
2022/11/03 04:56:43;;;;;;;1.50;1.10;;;;;;;0.08;77.42;99591.41;5063533;28;20052;-62
2022/11/03 04:59:14;;;;;;;1.15;1.05;;;;;;;0.16;76.83;99583.06;5066338;28;20076;-62
2022/11/03 05:01:39;;;;;;;3.40;1.45;;;;;;;0.38;76.60;99586.00;5072027;28;20117;-62
2022/11/03 05:04:15;;;;;;;1.25;1.17;;;;;;;0.29;76.45;99573.97;5083639;28;20033;-63
2022/11/03 05:06:48;;;;;;;2.55;1.20;;;;;;;0.49;76.63;99597.25;5063481;28;20032;-63
2022/11/03 05:09:19;;;;;;;3.28;1.33;;;;;;;0.47;75.32;99575.13;5078554;28;20074;-63
2022/11/03 05:11:45;;;;;;;3.58;2.63;;;;;;;0.52;75.71;99583.72;5078806;28;20024;-62
2022/11/03 05:14:26;;;;;;;1.70;1.60;;;;;;;0.13;76.02;99572.81;5076240;28;20035;-63
2022/11/03 05:16:54;;;;;;;2.50;1.80;;;;;;;0.15;76.73;99594.06;5076313;28;20305;-62
2022/11/03 05:19:24;;;;;;;2.78;1.90;;;;;;;0.31;76.19;99609.66;5074034;28;20035;-62
2022/11/03 05:21:51;;;;;;;2.85;2.65;;;;;;;0.11;76.84;99588.91;5075249;28;20033;-62
2022/11/03 05:24:20;;;;;;;3.22;2.50;;;;;;;0.16;76.53;99589.84;5074701;28;20025;-63
2022/11/03 05:26:45;;;;;;;2.67;2.17;;;;;;;0.21;77.11;99597.56;5075816;28;20197;-63
2022/11/03 05:29:20;;;;;;;3.70;1.90;;;;;;;0.28;76.58;99597.72;5083317;28;20060;-62
2022/11/03 05:31:47;;;;;;;2.20;1.63;;;;;;;0.16;77.22;99603.44;5078159;28;20020;-64
2022/11/03 05:34:40;;;;;;;2.40;2.20;;;;;;;0.01;77.36;99602.28;5062178;28;20029;-63
2022/11/03 05:37:05;;;;;;;3.03;2.22;;;;;;;-0.33;77.23;99614.31;5055090;28;20236;-63
2022/11/03 05:39:37;;;;;;;4.88;2.60;;;;;;;-0.27;77.90;99583.91;5066829;28;20065;-64
2022/11/03 05:42:21;;;;;;;4.15;2.70;;;;;;;-0.23;77.66;99578.94;5076443;28;20327;-64
2022/11/03 05:44:49;;;;;;;5.10;2.75;;;;;;;-0.09;77.83;99594.44;5070360;28;20379;-63
2022/11/03 05:47:17;;;;;;;6.13;2.30;;;;;;;-0.02;77.33;99597.97;5070689;28;20032;-64
2022/11/03 05:49:43;;;;;;;7.10;2.45;;;;;;;0.05;76.96;99602.38;5098665;28;20277;-65
2022/11/03 05:52:26;;;;;;;4.25;2.00;;;;;;;0.13;76.20;99605.09;5073065;28;20045;-64
2022/11/03 05:54:54;;;;;;;3.40;2.35;;;;;;;0.14;76.70;99587.28;5073476;28;20025;-63
2022/11/03 05:57:19;;;;;;;2.58;1.60;;;;;;;0.19;76.22;99609.44;5072888;28;20096;-63
2022/11/03 05:59:48;;;;;;;3.47;2.42;;;;;;;0.12;76.35;99608.44;5072055;28;20084;-63
2022/11/03 06:02:34;;;;;;;3.03;1.40;;;;;;;-0.06;77.01;99603.84;5062714;28;20029;-63
2022/11/03 06:05:01;;;;;;;1.63;1.40;;;;;;;0.03;77.15;99605.69;5071544;28;20035;-64
2022/11/03 06:07:29;;;;;;;4.40;1.50;;;;;;;0.04;77.61;99594.69;5073352;28;20078;-63
2022/11/03 06:09:55;;;;;;;4.43;1.70;;;;;;;0.19;76.50;99610.28;5078295;28;20376;-64
2022/11/03 06:12:21;;;;;;;1.58;1.48;;;;;;;0.05;76.34;99602.38;5065770;28;20039;-63
2022/11/03 06:14:48;;;;;;;3.17;1.27;;;;;;;0.32;76.60;99608.81;5070677;28;20093;-63
2022/11/03 06:17:25;;;;;;;4.72;1.95;;;;;;;0.29;75.54;99584.16;5078100;28;20032;-63
2022/11/03 06:19:54;;;;;;;2.75;1.30;;;;;;;0.07;76.56;99621.09;5066591;28;20055;-62
2022/11/03 06:22:25;;;;;;;1.70;1.60;;;;;;;-0.21;77.20;99619.66;5082468;28;20205;-64
2022/11/03 06:24:54;;;;;;;1.77;1.38;;;;;;;0.01;77.70;99620.94;5086492;28;20232;-64
2022/11/03 06:27:26;;;;;;;2.97;1.45;;;;;;;0.02;76.75;99606.56;5081406;28;20041;-64
2022/11/03 06:30:00;;;;;;;3.95;1.77;;;;;;;0.17;77.10;99612.81;5066864;28;20067;-63
2022/11/03 06:32:27;;;;;;;5.50;1.70;;;;;;;0.23;76.27;99618.81;5073163;28;20055;-64
2022/11/03 06:34:56;;;;;;;2.28;1.55;;;;;;;0.16;76.38;99597.50;5073971;28;20229;-63
2022/11/03 06:37:25;;;;;;;3.58;1.95;;;;;;;0.22;76.69;99612.03;5068764;28;20124;-63
2022/11/03 06:40:00;;;;;;;2.45;2.08;;;;;;;0.08;76.59;99612.59;5066209;28;20072;-64
2022/11/03 06:42:30;;;;;;;3.42;1.80;;;;;;;0.15;77.12;99623.78;5083218;28;20331;-64
2022/11/03 06:44:56;;;;;;;2.75;1.60;;;;;;;0.17;76.25;99620.44;5072893;28;20032;-64
2022/11/03 06:47:24;;;;;;;2.65;1.50;;;;;;;0.31;76.37;99609.66;5077257;28;20025;-63
2022/11/03 06:49:53;;;;;;;5.15;1.60;;;;;;;0.40;75.95;99619.13;5079992;28;20025;-63
2022/11/03 06:52:31;;;;;;;1.90;1.58;;;;;;;0.62;76.58;99625.50;5073594;28;20047;-63
2022/11/03 06:55:06;;;;;;;2.85;1.45;;;;;;;0.67;75.16;99627.28;5073173;28;20040;-63
2022/11/03 06:57:37;;;;;;;4.18;1.77;;;;;;;0.62;74.75;99600.03;5083560;28;20044;-64
2022/11/03 07:00:27;;;;;;;4.03;1.67;;;;;;;0.77;74.27;99594.31;5078440;28;20059;-63
2022/11/03 07:03:05;;;;;;;6.22;1.45;;;;;;;0.92;74.29;99619.22;5061508;28;20332;-63
2022/11/03 07:05:32;;;;;;;2.63;1.60;;;;;;;0.82;74.57;99610.56;5073500;28;20321;-64
2022/11/03 07:08:10;;;;;;;1.65;1.00;;;;;;;0.74;74.05;99623.19;5074579;28;20024;-63
2022/11/03 07:10:36;;;;;;;3.10;1.33;;;;;;;0.90;74.08;99620.84;5081465;28;20419;-63
2022/11/03 07:13:23;;;;;;;5.63;1.55;;;;;;;0.90;73.85;99625.97;5071300;28;20040;-63
2022/11/03 07:15:51;;;;;;;2.70;1.60;;;;;;;0.93;73.64;99626.03;5070789;28;20092;-63
2022/11/03 07:18:26;;;;;;;9.20;1.60;;;;;;;1.05;73.37;99627.91;5065605;28;20021;-63
2022/11/03 07:20:54;;;;;;;4.05;1.52;;;;;;;1.06;74.03;99629.66;5069596;28;20029;-63
2022/11/03 07:23:29;;;;;;;5.18;1.58;;;;;;;0.97;73.95;99612.47;5071367;28;20024;-63
2022/11/03 07:26:01;;;;;;;4.40;1.50;;;;;;;0.99;74.08;99626.13;5070813;28;20464;-64
2022/11/03 07:28:33;;;;;;;4.93;1.67;;;;;;;0.91;73.47;99608.13;5069521;28;20147;-63
2022/11/03 07:31:05;;;;;;;4.35;2.63;;;;;;;0.81;73.23;99612.25;5067790;28;20240;-64
2022/11/03 07:33:31;;;;;;;3.80;1.40;;;;;;;0.89;73.98;99626.81;5074510;28;20036;-64
2022/11/03 07:35:59;;;;;;;1.88;1.40;;;;;;;0.96;73.87;99626.94;5065300;28;20024;-63
2022/11/03 07:38:27;;;;;;;2.40;1.40;;;;;;;0.76;73.53;99626.59;5073634;28;20212;-65
2022/11/03 07:40:56;;;;;;;2.60;1.33;;;;;;;0.49;74.74;99604.88;5079412;28;20217;-64
2022/11/03 07:43:26;;;;;;;4.00;1.60;;;;;;;0.85;74.41;99638.63;5065002;28;20035;-64
2022/11/03 07:45:58;;;;;;;1.23;1.10;;;;;;;0.94;73.60;99645.56;5070210;28;20025;-64
2022/11/03 07:48:38;;;;;;;8.48;1.25;;;;;;;1.00;73.62;99640.59;5080133;28;20157;-64
2022/11/03 07:51:21;;;;;;;2.50;1.40;;;;;;;0.94;73.47;99628.59;5079646;28;20067;-64
2022/11/03 07:53:49;;;;;;;3.75;1.20;;;;;;;1.03;73.34;99633.84;5075085;28;20039;-63
2022/11/03 07:56:19;;;;;;;3.25;1.10;;;;;;;1.14;72.67;99641.69;5083352;28;20036;-65
2022/11/03 07:58:46;;;;;;;3.85;1.52;;;;;;;1.16;72.55;99639.16;5081322;28;20036;-65
2022/11/03 08:01:27;;;;;;;3.85;1.13;;;;;;;1.02;72.80;99641.47;5080658;28;20037;-63
2022/11/03 08:03:58;;;;;;;4.38;1.33;;;;;;;1.10;72.31;99637.34;5079314;28;20348;-65
2022/11/03 08:06:24;;;;;;;3.70;1.60;;;;;;;1.15;72.76;99638.28;5083046;28;20036;-65
2022/11/03 08:08:50;;;;;;;2.55;1.10;;;;;;;0.94;73.20;99632.81;5082144;28;20032;-64
2022/11/03 08:11:16;;;;;;;1.77;1.30;;;;;;;0.99;72.36;99643.97;5082825;28;20232;-64
2022/11/03 08:13:41;;;;;;;2.65;1.30;;;;;;;1.07;72.08;99639.88;5081272;28;20062;-64
2022/11/03 08:16:07;;;;;;;2.00;1.30;;;;;;;1.03;72.37;99627.91;5080992;28;20069;-64
2022/11/03 08:18:33;;;;;;;3.50;1.35;;;;;;;1.23;73.03;99634.97;5078154;28;20025;-66
2022/11/03 08:20:58;;;;;;;2.35;1.48;;;;;;;1.22;72.98;99638.38;5081192;28;20082;-65
2022/11/03 08:23:24;;;;;;;1.75;1.33;;;;;;;0.97;72.72;99632.88;5096511;28;20391;-64
2022/11/03 08:25:49;;;;;;;2.67;1.63;;;;;;;1.28;71.81;99635.91;5076663;28;20332;-64
2022/11/03 08:28:15;;;;;;;4.25;3.47;;;;;;;1.27;72.07;99642.72;5081367;28;20040;-64
2022/11/03 08:30:41;;;;;;;3.15;1.70;;;;;;;1.23;72.14;99633.31;5078497;28;20096;-64
2022/11/03 08:33:06;;;;;;;2.45;1.50;;;;;;;1.02;72.18;99632.13;5082379;28;20024;-65
2022/11/03 08:35:32;;;;;;;3.42;1.65;;;;;;;1.20;72.12;99635.81;5082602;28;20032;-64
2022/11/03 08:37:58;;;;;;;2.67;1.50;;;;;;;1.21;72.36;99632.41;5082386;28;20111;-63
2022/11/03 08:40:24;;;;;;;2.90;1.45;;;;;;;1.23;72.40;99628.22;5082267;28;20043;-64
2022/11/03 08:42:49;;;;;;;4.78;1.40;;;;;;;1.28;72.12;99636.78;5082118;28;20052;-63
2022/11/03 08:45:15;;;;;;;3.72;1.77;;;;;;;1.15;72.29;99635.72;5081279;28;20336;-64
2022/11/03 08:47:41;;;;;;;2.63;1.65;;;;;;;1.20;72.52;99623.91;5075794;28;20028;-63
2022/11/03 08:50:07;;;;;;;2.10;1.50;;;;;;;1.30;72.23;99626.63;5078242;28;20032;-63
2022/11/03 08:52:32;;;;;;;3.28;1.52;;;;;;;1.33;72.07;99621.56;5068366;28;20032;-64
2022/11/03 08:54:58;;;;;;;3.13;1.80;;;;;;;1.38;71.78;99628.44;5066556;28;20033;-63
2022/11/03 08:57:24;;;;;;;3.50;1.73;;;;;;;1.28;72.18;99624.00;5067353;28;20025;-64
2022/11/03 08:59:51;;;;;;;4.20;2.00;;;;;;;1.24;72.24;99627.38;5067728;28;20043;-63
2022/11/03 09:02:17;;;;;;;2.83;1.58;;;;;;;1.27;72.38;99622.31;5079001;28;20090;-63
2022/11/03 09:04:42;;;;;;;2.63;1.80;;;;;;;1.17;73.05;99620.47;5065470;28;20028;-64
2022/11/03 09:07:08;;;;;;;5.45;1.80;;;;;;;1.34;72.37;99628.34;5083418;28;20044;-64
2022/11/03 09:09:33;;;;;;;4.32;1.73;;;;;;;1.36;72.52;99619.03;5069700;28;20198;-66
2022/11/03 09:11:59;;;;;;;5.00;1.65;;;;;;;1.25;72.36;99620.56;5070864;28;20045;-64
2022/11/03 09:14:24;;;;;;;5.30;1.70;;;;;;;1.38;71.75;99618.25;5066775;28;20029;-64
2022/11/03 09:16:50;;;;;;;6.82;1.48;;;;;;;1.39;72.35;99624.19;5071470;28;20032;-65
2022/11/03 09:19:16;;;;;;;5.78;1.65;;;;;;;1.43;71.50;99623.41;5063088;28;20067;-64
2022/11/03 09:21:41;;;;;;;1.85;1.10;;;;;;;1.43;71.43;99630.22;5063536;28;20028;-64
2022/11/03 09:24:07;;;;;;;1.77;1.63;;;;;;;1.48;71.00;99626.88;5066548;28;20082;-65
2022/11/03 09:26:32;;;;;;;3.03;1.55;;;;;;;1.51;71.24;99621.81;5063821;28;20213;-65
2022/11/03 09:28:58;;;;;;;2.80;1.58;;;;;;;1.46;71.47;99622.59;5063340;28;20036;-65
2022/11/03 09:31:27;;;;;;;1.48;1.38;;;;;;;1.42;71.37;99626.78;5068630;28;20028;-66
2022/11/03 09:33:53;;;;;;;2.58;1.35;;;;;;;1.41;71.50;99624.22;5070708;28;20032;-66
2022/11/03 09:36:19;;;;;;;3.85;1.77;;;;;;;1.37;72.02;99630.97;5063025;28;20306;-65
2022/11/03 09:38:44;;;;;;;2.65;1.80;;;;;;;1.47;71.45;99622.63;5073223;28;20071;-63
2022/11/03 09:41:16;;;;;;;2.40;1.80;;;;;;;1.35;72.00;99627.53;5078113;28;20286;-64
2022/11/03 09:43:46;;;;;;;;;;;;;;;1.38;72.25;99619.91;5063087;28;20317;-63
2022/11/03 09:46:14;;;;;;;4.68;2.20;;;;;;;1.34;72.99;99620.69;5081177;28;19916;-64
2022/11/03 09:48:40;;;;;;;3.42;2.00;;;;;;;1.45;72.58;99618.31;5083055;28;20028;-64
2022/11/03 09:51:09;;;;;;;5.72;2.45;;;;;;;1.28;71.92;99597.66;5077314;28;20366;-64
2022/11/03 09:53:35;;;;;;;7.75;2.50;;;;;;;1.46;71.75;99615.78;5074139;28;20337;-64
2022/11/03 09:56:01;;;;;;;7.43;2.63;;;;;;;1.36;72.42;99621.59;5066613;28;20029;-65
2022/11/03 09:58:26;;;;;;;6.45;3.20;;;;;;;1.29;72.70;99614.69;5087054;28;20280;-64
2022/11/03 10:00:52;;;;;;;3.78;2.55;;;;;;;1.43;72.29;99612.34;5067407;28;20028;-64
2022/11/03 10:03:19;;;;;;;4.00;2.75;;;;;;;1.52;71.95;99617.56;5080222;28;20028;-63
2022/11/03 10:05:46;;;;;;;3.40;2.80;;;;;;;1.50;72.28;99615.00;5077072;28;20021;-64
2022/11/03 10:08:28;;;;;;;4.10;3.45;;;;;;;1.39;72.51;99603.78;5071537;28;20036;-64
2022/11/03 10:10:54;;;;;;;6.43;3.42;;;;;;;1.36;72.57;99619.88;5085034;28;20372;-64
2022/11/03 10:13:30;;;;;;;7.18;3.85;;;;;;;1.43;71.84;99610.66;5086798;28;20035;-65
2022/11/03 10:15:58;;;;;;;6.18;3.70;;;;;;;1.52;72.65;99613.31;5067332;28;20080;-65
2022/11/03 10:18:26;;;;;;;4.65;3.67;;;;;;;1.40;71.99;99600.41;5080579;28;20024;-66
2022/11/03 10:20:51;;;;;;;6.07;3.97;;;;;;;1.50;72.30;99615.00;5075635;28;20033;-66
2022/11/03 10:23:17;;;;;;;6.05;4.25;;;;;;;1.49;71.79;99620.94;5069725;28;20028;-66
2022/11/03 10:25:44;;;;;;;5.10;4.13;;;;;;;1.37;71.37;99628.41;5066858;28;20036;-65
2022/11/03 10:28:27;;;;;;;6.18;4.15;;;;;;;1.50;71.79;99620.09;5076215;28;20351;-66
2022/11/03 10:31:18;;;;;;;4.28;3.60;;;;;;;1.42;72.31;99605.53;5074884;28;20092;-65
2022/11/03 10:33:54;;;;;;;6.03;4.50;;;;;;;1.54;71.93;99613.34;5080404;28;20340;-66
2022/11/03 10:36:28;;;;;;;6.55;3.70;;;;;;;1.41;72.39;99619.97;5076929;28;20339;-65
2022/11/03 10:38:54;;;;;;;6.10;3.55;;;;;;;1.58;72.41;99630.41;5077411;28;20305;-65
2022/11/03 10:41:23;;;;;;;4.10;3.67;;;;;;;1.69;71.90;99626.31;5075350;28;20100;-64
2022/11/03 10:44:12;;;;;;;8.18;3.72;;;;;;;1.71;71.77;99623.75;5075889;28;20028;-66
2022/11/03 10:46:39;;;;;;;5.78;3.67;;;;;;;1.60;72.02;99620.25;5076429;28;20031;-65
2022/11/03 10:49:13;;;;;;;5.88;3.28;;;;;;;1.65;72.26;99624.53;5072839;28;20021;-63
2022/11/03 10:51:40;;;;;;;6.55;3.70;;;;;;;1.67;72.04;99615.22;5079545;28;20213;-64
2022/11/03 10:54:11;;;;;;;4.35;3.38;;;;;;;1.46;72.11;99605.56;5074317;28;20113;-64
2022/11/03 10:56:37;;;;;;;4.87;3.23;;;;;;;1.53;72.28;99615.03;5076719;28;20048;-65
2022/11/03 10:59:03;;;;;;;9.13;3.55;;;;;;;1.61;72.79;99616.84;5066720;28;20202;-64
2022/11/03 11:01:29;;;;;;;6.95;3.67;;;;;;;1.40;72.75;99613.16;5069674;28;20387;-64
2022/11/03 11:03:54;;;;;;;5.45;3.90;;;;;;;1.52;72.54;99613.31;5071693;28;20044;-63
2022/11/03 11:06:22;;;;;;;4.00;3.60;;;;;;;1.65;72.86;99618.59;5074227;28;20048;-64
2022/11/03 11:08:52;;;;;;;5.50;3.25;;;;;;;1.53;72.50;99581.00;5073206;28;20040;-63
2022/11/03 11:11:20;;;;;;;3.55;2.80;;;;;;;1.58;71.97;99609.97;5073900;28;20355;-65
2022/11/03 11:14:24;;;;;;;3.00;2.55;;;;;;;1.51;71.91;99603.97;5073825;28;20093;-65
2022/11/03 11:16:55;;;;;;;4.10;2.53;;;;;;;1.35;72.58;99602.00;5076881;28;20036;-65
2022/11/03 11:19:22;;;;;;;5.65;2.97;;;;;;;1.34;73.14;99613.03;5085168;28;20032;-66
2022/11/03 11:21:49;;;;;;;8.60;3.20;;;;;;;1.43;72.71;99613.19;5067107;28;20090;-65
2022/11/03 11:24:43;;;;;;;4.82;3.03;;;;;;;1.43;72.46;99610.66;5076619;28;20104;-65
2022/11/03 11:27:33;;;;;;;3.33;2.25;;;;;;;1.63;72.25;99610.06;5077136;28;20056;-64
2022/11/03 11:30:00;;;;;;;3.88;2.97;;;;;;;1.68;71.85;99611.84;5070617;28;20055;-66
2022/11/03 11:32:58;;;;;;;5.80;2.90;;;;;;;1.59;72.06;99613.41;5075695;28;20031;-65
2022/11/03 11:35:26;;;;;;;2.83;2.40;;;;;;;1.65;71.98;99627.09;5067073;28;20363;-65
2022/11/03 11:37:53;;;;;;;3.63;2.35;;;;;;;1.38;71.57;99589.28;5071395;28;20048;-67
2022/11/03 11:40:24;;;;;;;3.63;2.65;;;;;;;1.61;71.58;99611.72;5074566;28;20064;-65
2022/11/03 11:43:03;;;;;;;7.90;4.03;;;;;;;1.62;72.16;99616.84;5073424;28;20107;-65
2022/11/03 11:46:05;;;;;;;3.58;2.55;;;;;;;1.66;71.99;99620.31;5075311;28;20024;-65
2022/11/03 11:48:32;;;;;;;3.90;2.75;;;;;;;1.65;71.66;99624.53;5073757;28;20025;-65
2022/11/03 11:50:58;;;;;;;5.68;3.20;;;;;;;1.53;72.48;99617.59;5074113;28;20240;-66
2022/11/03 11:53:26;;;;;;;7.10;3.25;;;;;;;1.53;72.22;99620.13;5075086;28;20351;-65
2022/11/03 11:56:00;;;;;;;4.25;3.00;;;;;;;1.43;72.57;99608.09;5075612;28;20029;-65
2022/11/03 11:58:34;;;;;;;5.70;2.92;;;;;;;1.30;73.03;99621.50;5073088;28;20027;-63
2022/11/03 12:01:02;;;;;;;4.18;2.85;;;;;;;1.50;72.24;99619.25;5073529;28;20029;-64
2022/11/03 12:03:32;;;;;;;11.02;3.10;;;;;;;1.43;72.91;99603.00;5074598;28;20104;-64
2022/11/03 12:05:58;;;;;;;5.43;2.90;;;;;;;1.38;72.52;99612.25;5074495;28;20213;-64
2022/11/03 12:08:28;;;;;;;4.65;3.08;;;;;;;1.37;72.37;99601.22;5075065;28;20032;-65
2022/11/03 12:10:57;;;;;;;2.92;2.50;;;;;;;1.43;72.30;99610.66;5077006;28;20078;-65
2022/11/03 12:13:50;;;;;;;5.30;3.10;;;;;;;1.55;72.03;99618.47;5070797;28;20086;-65